Time;durP1;ratioP1;P1;durP2;ratioP2;P2;SDS_P1;SDS_P2;PMS_P1;PMS_P2;Temp;Humidity;BMP_temperature;BMP_pressure;BME280_temperature;BME280_humidity;BME280_pressure;Samples;Min_cycle;Max_cycle;Signal;HPM_P1;HPM_P2
2022/10/14 07:11:16;;;;;;;;;1.25;1.25;;;;;18.40;59.29;101019.56;5116237;27;45470;-83
2022/10/14 07:13:41;;;;;;;;;1.33;1.33;;;;;18.53;58.90;101028.34;5105719;27;46203;-87
2022/10/14 07:16:06;;;;;;;;;1.33;1.33;;;;;18.74;59.34;101034.69;5097622;27;45561;-84
2022/10/14 07:18:32;;;;;;;;;2.00;2.00;;;;;18.98;58.82;101030.91;5098788;27;45592;-85
2022/10/14 07:21:04;;;;;;;;;1.67;1.00;;;;;19.26;58.27;101039.34;5098951;27;45608;-86
2022/10/14 07:23:29;;;;;;;;;1.00;1.00;;;;;19.48;58.19;101024.84;5103578;27;45548;-84
2022/10/14 07:25:56;;;;;;;;;2.00;1.33;;;;;19.83;58.24;101030.81;5095026;27;45472;-81
2022/10/14 07:28:21;;;;;;;;;2.00;1.00;;;;;20.12;57.30;101033.59;5096911;27;45529;-82
2022/10/14 07:31:21;;;;;;;;;1.00;1.00;;;;;20.42;56.42;101028.25;5100315;27;45544;-78
2022/10/14 07:33:46;;;;;;;;;4.00;1.33;;;;;20.75;55.07;101033.38;5090951;27;45503;-82
2022/10/14 07:36:14;;;;;;;;;2.00;2.00;;;;;20.98;55.21;101036.66;5092878;27;52149;-81
2022/10/14 07:38:39;;;;;;;;;0.67;0.67;;;;;21.15;55.32;101035.06;5104359;27;45625;-79
2022/10/14 07:41:15;;;;;;;;;1.00;1.00;;;;;21.37;54.95;101045.66;5105873;27;46026;-83
2022/10/14 07:43:42;;;;;;;;;1.33;1.00;;;;;21.54;54.43;101044.06;5102309;27;45600;-82
2022/10/14 07:46:08;;;;;;;;;1.00;1.00;;;;;21.70;54.15;101052.34;5101618;27;45410;-84
2022/10/14 07:48:34;;;;;;;;;1.00;1.00;;;;;21.85;53.83;101058.16;5103147;27;46997;-85
2022/10/14 07:51:00;;;;;;;;;1.00;1.00;;;;;21.96;53.66;101053.56;5097022;27;45450;-80
2022/10/14 07:53:26;;;;;;;;;1.67;1.00;;;;;22.14;53.52;101072.50;5101513;27;45503;-80
2022/10/14 07:55:52;;;;;;;;;2.00;2.00;;;;;22.23;53.41;101066.19;5110624;27;45481;-79
2022/10/14 07:58:22;;;;;;;;;1.00;1.00;;;;;22.38;52.86;101079.19;5091670;27;45434;-78
2022/10/14 08:00:49;;;;;;;;;0.00;0.00;;;;;22.48;52.30;101084.56;5098035;27;48699;-82
2022/10/14 08:03:15;;;;;;;;;0.67;0.67;;;;;22.61;51.42;101090.44;5105456;27;45529;-83
2022/10/14 08:05:41;;;;;;;;;1.00;1.00;;;;;22.74;51.14;101090.09;5111422;27;45654;-77
2022/10/14 08:08:07;;;;;;;;;0.67;0.00;;;;;22.78;51.06;101085.19;5108174;27;45592;-81
2022/10/14 08:10:33;;;;;;;;;1.00;1.00;;;;;22.84;51.32;101086.44;5096149;27;46588;-79
2022/10/14 08:12:58;;;;;;;;;1.67;1.00;;;;;22.86;51.37;101082.56;5109766;27;45568;-82
2022/10/14 08:15:27;;;;;;;;;2.00;1.00;;;;;22.89;51.04;101089.53;5102529;27;45708;-80
2022/10/14 08:17:53;;;;;;;;;1.00;1.00;;;;;22.97;51.08;101089.56;5108568;27;45608;-80
2022/10/14 08:20:18;;;;;;;;;1.00;1.00;;;;;23.10;51.16;101104.59;5103871;27;47469;-81
2022/10/14 08:22:44;;;;;;;;;2.00;0.67;;;;;23.19;50.58;101100.94;5091059;27;45744;-79
2022/10/14 08:25:09;;;;;;;;;1.00;1.00;;;;;23.21;50.79;101093.50;5093164;27;45422;-82
2022/10/14 08:27:34;;;;;;;;;1.00;1.00;;;;;23.28;50.80;101097.28;5100292;27;47259;-82
2022/10/14 08:30:00;;;;;;;;;1.00;1.00;;;;;23.33;50.74;101098.69;5094662;27;46118;-78
2022/10/14 08:32:25;;;;;;;;;1.00;1.00;;;;;23.36;50.57;101103.78;5084474;27;45533;-76
2022/10/14 08:34:51;;;;;;;;;1.33;1.00;;;;;23.41;50.64;101107.72;5084574;27;45866;-81
2022/10/14 08:37:16;;;;;;;;;1.00;1.00;;;;;23.46;50.48;101106.41;5089398;27;45406;-77
2022/10/14 08:39:42;;;;;;;;;1.33;1.33;;;;;23.46;50.55;101104.53;5087234;27;54542;-81
2022/10/14 08:42:25;;;;;;;;;1.00;1.00;;;;;23.49;50.39;101096.09;5087943;27;45563;-80
2022/10/14 08:45:09;;;;;;;;;1.00;1.00;;;;;23.53;50.49;101100.19;5105605;27;45743;-79
2022/10/14 08:47:39;;;;;;;;;2.33;1.00;;;;;23.59;50.15;101097.84;5091320;27;45480;-79
2022/10/14 08:50:16;;;;;;;;;2.00;2.00;;;;;23.65;50.32;101100.75;5097095;27;45681;-79
2022/10/14 08:52:46;;;;;;;;;0.00;0.00;;;;;23.71;50.07;101093.00;5090029;27;45463;-76
2022/10/14 08:55:17;;;;;;;;;0.00;0.00;;;;;23.75;50.33;101089.78;5078624;27;45381;-75
2022/10/14 08:57:51;;;;;;;;;1.00;1.00;;;;;23.80;50.18;101089.31;5087472;27;45437;-77
2022/10/14 09:00:19;;;;;;;;;2.00;2.00;;;;;23.85;50.20;101080.69;5096996;27;45882;-77
2022/10/14 09:02:49;;;;;;;;;2.00;0.00;;;;;23.94;50.19;101093.25;5089799;27;45358;-78
2022/10/14 09:05:18;;;;;;;;;1.00;1.00;;;;;24.01;50.03;101088.03;5085085;27;45557;-81
2022/10/14 09:07:46;;;;;;;;;3.00;1.00;;;;;24.10;50.08;101087.09;5112235;27;45523;-78
2022/10/14 09:10:22;;;;;;;;;1.00;1.00;;;;;24.16;49.69;101082.88;5096206;27;45446;-81
2022/10/14 09:12:48;;;;;;;;;0.67;0.67;;;;;24.26;49.28;101083.59;5095318;27;45421;-78
2022/10/14 09:15:51;;;;;;;;;1.00;1.00;;;;;24.36;49.18;101088.00;5108129;27;45775;-77
2022/10/14 09:18:35;;;;;;;;;2.00;0.00;;;;;24.40;49.51;101079.38;5085639;27;46927;-76
2022/10/14 09:21:07;;;;;;;;;0.33;0.33;;;;;24.43;49.47;101079.03;5093653;27;45560;-76
2022/10/14 09:23:32;;;;;;;;;0.00;0.00;;;;;24.43;49.22;101068.19;5089822;27;45731;-77
2022/10/14 09:26:04;;;;;;;;;0.00;0.00;;;;;24.50;49.36;101071.09;5112305;27;45386;-76
2022/10/14 09:28:41;;;;;;;;;1.00;1.00;;;;;24.54;48.84;101075.16;5096588;27;45425;-77
2022/10/14 09:31:10;;;;;;;;;2.00;1.00;;;;;24.57;49.10;101069.38;5095954;27;45385;-77
2022/10/14 09:33:38;;;;;;;;;0.67;0.67;;;;;24.60;48.88;101073.63;5100703;27;45762;-84
2022/10/14 09:36:05;;;;;;;;;2.00;2.00;;;;;24.59;48.93;101059.22;5089990;27;45500;-84
2022/10/14 09:38:31;;;;;;;;;1.00;1.00;;;;;24.57;48.73;101057.69;5095869;27;45592;-84
2022/10/14 09:40:59;;;;;;;;;0.67;0.67;;;;;24.57;48.54;101063.97;5080482;27;46027;-84
2022/10/14 09:43:24;;;;;;;;;0.00;0.00;;;;;24.56;48.52;101066.88;5097645;27;45422;-82
2022/10/14 09:45:55;;;;;;;;;2.00;0.67;;;;;24.61;48.51;101075.34;5087064;27;45445;-84
2022/10/14 09:48:36;;;;;;;;;1.00;1.00;;;;;24.63;48.07;101067.00;5080980;27;45568;-85
2022/10/14 09:51:08;;;;;;;;;1.00;1.00;;;;;24.64;48.08;101068.72;5092039;27;45559;-85
2022/10/14 09:53:47;;;;;;;;;0.67;0.33;;;;;24.71;47.95;101070.59;5083903;27;45489;-84
2022/10/14 09:56:14;;;;;;;;;0.00;0.00;;;;;24.75;48.00;101068.41;5090307;27;45432;-84
2022/10/14 09:58:56;;;;;;;;;3.00;0.00;;;;;24.76;47.85;101067.38;5081629;27;45686;-84
2022/10/14 10:01:27;;;;;;;;;1.33;0.00;;;;;24.82;47.61;101065.84;5082226;27;46210;-84
2022/10/14 10:03:54;;;;;;;;;0.00;0.00;;;;;24.82;47.35;101066.72;5088600;27;45448;-84
2022/10/14 10:06:24;;;;;;;;;0.00;0.00;;;;;24.90;47.58;101074.03;5096319;27;45552;-85
2022/10/14 10:08:52;;;;;;;;;0.00;0.00;;;;;24.90;47.50;101068.59;5084931;27;45536;-86
2022/10/14 10:11:36;;;;;;;;;2.00;0.67;;;;;24.90;47.37;101067.75;5089405;27;45543;-76
2022/10/14 10:14:24;;;;;;;;;1.00;1.00;;;;;24.90;47.22;101073.19;5089422;27;45489;-77
2022/10/14 10:17:11;;;;;;;;;1.00;1.00;;;;;24.88;47.44;101061.66;5092390;27;45397;-79
2022/10/14 10:19:41;;;;;;;;;1.00;0.00;;;;;24.89;47.21;101049.75;5078638;27;45603;-79
2022/10/14 10:22:25;;;;;;;;;2.00;0.00;;;;;24.89;47.45;101058.75;5094400;27;46016;-77
2022/10/14 10:25:13;;;;;;;;;3.00;1.33;;;;;24.85;47.25;101035.69;5087952;27;45750;-78
2022/10/14 10:27:46;;;;;;;;;1.00;1.00;;;;;24.89;47.30;101044.34;5094156;27;45596;-79
2022/10/14 10:30:19;;;;;;;;;2.00;1.00;;;;;24.89;47.31;101044.34;5100039;27;45320;-80
2022/10/14 10:33:19;;;;;;;;;4.33;2.00;;;;;24.86;47.33;101040.94;5093273;27;46185;-81
2022/10/14 10:35:56;;;;;;;;;1.00;1.00;;;;;24.85;47.01;101055.53;5078696;27;45494;-78
2022/10/14 10:38:31;;;;;;;;;2.00;1.00;;;;;24.82;47.18;101047.72;5077384;27;45497;-83
2022/10/14 10:41:12;;;;;;;;;3.00;3.00;;;;;24.78;47.16;101021.06;5075679;27;45717;-78
2022/10/14 10:44:02;;;;;;;;;1.00;1.00;;;;;24.74;46.98;101034.97;5073942;27;46658;-80
2022/10/14 10:46:46;;;;;;;;;1.00;1.00;;;;;24.71;47.23;101027.19;5083184;27;45504;-81
2022/10/14 10:49:39;;;;;;;;;2.00;2.00;;;;;24.66;47.16;101034.13;5075013;27;45411;-80
2022/10/14 10:52:21;;;;;;;;;1.33;1.33;;;;;24.61;47.15;101019.19;5099466;27;45347;-81
2022/10/14 10:54:54;;;;;;;;;1.33;1.33;;;;;24.54;47.27;101015.47;5083173;27;45612;-81
2022/10/14 10:57:33;;;;;;;;;0.33;0.33;;;;;24.54;47.09;101020.91;5075191;27;46261;-82
2022/10/14 11:00:00;;;;;;;;;0.67;0.67;;;;;24.51;47.24;101013.09;5086144;27;45498;-82
2022/10/14 11:02:44;;;;;;;;;1.00;1.00;;;;;24.46;47.55;101010.91;5086109;27;45564;-84
2022/10/14 11:05:16;;;;;;;;;3.00;2.00;;;;;24.46;47.01;101000.03;5078801;27;47138;-77
2022/10/14 11:14:34;;;;;;;;;1.33;1.00;;;;;24.42;47.33;101001.38;5089922;27;45375;-79
2022/10/14 11:17:28;;;;;;;;;1.67;1.00;;;;;24.43;47.53;101004.94;5047897;28;45857;-80
2022/10/14 11:20:13;;;;;;;;;1.00;1.00;;;;;24.44;47.34;100991.22;5048140;28;45482;-80
2022/10/14 11:22:55;;;;;;;;;1.00;1.00;;;;;24.42;47.18;100985.13;5031362;28;45522;-80
2022/10/14 11:25:39;;;;;;;;;1.00;1.00;;;;;24.48;47.33;100978.13;5036293;28;45366;-80
2022/10/14 11:28:28;;;;;;;;;2.00;2.00;;;;;24.48;47.27;100984.44;5034687;28;45624;-80
2022/10/14 11:31:11;;;;;;;;;0.67;0.67;;;;;24.48;47.21;100979.00;5030914;28;45568;-75
2022/10/14 11:34:07;;;;;;;;;1.00;1.00;;;;;24.48;47.48;100970.00;5034905;28;45563;-77
2022/10/14 11:36:43;;;;;;;;;1.00;1.00;;;;;24.50;47.20;100961.69;5047026;28;45628;-79
2022/10/14 11:39:20;;;;;;;;;1.00;1.00;;;;;24.47;47.40;100954.75;5050487;28;46417;-81
2022/10/14 11:41:57;;;;;;;;;1.00;1.00;;;;;24.48;47.31;100946.44;5046641;28;45579;-83
2022/10/14 11:44:37;;;;;;;;;0.00;0.00;;;;;24.48;47.15;100953.72;5035032;28;45688;-83
2022/10/14 11:47:23;;;;;;;;;0.67;0.67;;;;;24.50;47.70;100942.72;5041063;27;45747;-82
2022/10/14 11:50:10;;;;;;;;;0.00;0.00;;;;;24.51;47.62;100945.25;5078128;27;47469;-80
2022/10/14 11:52:41;;;;;;;;;0.33;0.33;;;;;24.50;47.61;100929.13;5076740;27;45959;-80
2022/10/14 11:55:16;;;;;;;;;1.00;1.00;;;;;24.51;47.68;100922.69;5077111;27;47641;-80
2022/10/14 11:57:52;;;;;;;;;0.00;0.00;;;;;24.45;47.75;100911.50;5078647;27;45547;-79
2022/10/14 12:00:20;;;;;;;;;1.00;1.00;;;;;24.46;47.99;100907.78;5082486;27;47381;-80
2022/10/14 12:03:30;;;;;;;;;1.00;1.00;;;;;24.49;47.85;100909.31;5077821;27;45639;-80
2022/10/14 12:06:14;;;;;;;;;0.00;0.00;;;;;24.46;47.88;100905.09;5060590;27;45868;-81
2022/10/14 12:08:54;;;;;;;;;3.00;1.00;;;;;24.50;47.71;100902.88;5064389;27;45522;-79
2022/10/14 12:11:29;;;;;;;;;1.67;1.00;;;;;24.52;47.71;100889.97;5060553;27;45677;-80
2022/10/14 12:14:20;;;;;;;;;1.00;1.00;;;;;24.51;47.62;100885.56;5061323;27;45502;-80
2022/10/14 12:16:47;;;;;;;;;1.00;1.00;;;;;24.52;47.84;100881.00;5063517;27;46535;-81
2022/10/14 12:19:25;;;;;;;;;1.33;1.33;;;;;24.47;47.65;100874.22;5060681;27;45976;-80
2022/10/14 12:22:00;;;;;;;;;1.00;1.00;;;;;24.46;47.60;100871.66;5061551;27;46041;-81
2022/10/14 12:24:32;;;;;;;;;1.00;0.00;;;;;24.43;47.96;100867.44;5061799;27;45587;-81
2022/10/14 12:27:00;;;;;;;;;1.00;1.00;;;;;24.41;47.62;100852.34;5061484;28;46763;-84
2022/10/14 12:29:46;;;;;;;;;0.67;0.67;;;;;24.48;47.20;100854.19;5059908;27;46586;-82
2022/10/14 12:32:14;;;;;;;;;1.00;1.00;;;;;24.50;47.53;100853.19;5059972;27;46228;-82
2022/10/14 12:34:45;;;;;;;;;2.67;1.00;;;;;24.47;47.93;100848.94;5059677;28;45557;-80
2022/10/14 12:37:22;;;;;;;;;1.33;1.33;;;;;24.47;47.80;100848.94;5054879;28;45923;-83
2022/10/14 12:39:52;;;;;;;;;1.00;1.00;;;;;24.41;47.50;100833.38;5063690;27;47330;-85
2022/10/14 12:42:19;;;;;;;;;1.00;1.00;;;;;24.47;47.83;100846.22;5090235;27;47601;-83
2022/10/14 12:44:50;;;;;;;;;1.33;1.00;;;;;24.44;47.94;100825.72;5072067;27;45478;-82
2022/10/14 12:47:38;;;;;;;;;1.00;1.00;;;;;24.47;47.75;100824.53;5071991;27;46998;-83
2022/10/14 12:50:27;;;;;;;;;2.00;2.00;;;;;24.47;47.81;100816.38;5072448;27;45644;-82
2022/10/14 12:53:00;;;;;;;;;1.00;1.00;;;;;24.47;48.02;100802.81;5076145;27;45936;-84
2022/10/14 12:55:28;;;;;;;;;2.33;1.00;;;;;24.48;47.73;100799.94;5083423;27;46880;-84
2022/10/14 12:57:59;;;;;;;;;1.00;1.00;;;;;24.50;47.98;100793.50;5073115;27;45657;-81
2022/10/14 13:00:24;;;;;;;;;0.00;0.00;;;;;24.51;47.81;100792.47;5072004;27;47032;-75
2022/10/14 13:02:54;;;;;;;;;1.00;1.00;;;;;24.49;47.86;100779.09;5074923;27;46100;-84
2022/10/14 13:05:28;;;;;;;;;2.00;2.00;;;;;24.51;48.39;100784.31;5077449;27;47134;-84
2022/10/14 13:08:09;;;;;;;;;1.00;1.00;;;;;24.52;48.07;100777.91;5072344;27;46968;-83
2022/10/14 13:10:37;;;;;;;;;0.00;0.00;;;;;24.51;48.05;100774.31;5073523;27;45522;-84
2022/10/14 13:13:37;;;;;;;;;0.00;0.00;;;;;24.53;48.12;100774.16;5083788;27;46226;-79
2022/10/14 13:16:03;;;;;;;;;2.00;2.00;;;;;24.51;47.88;100774.31;5072783;27;46481;-80
2022/10/14 13:18:37;;;;;;;;;1.00;1.00;;;;;24.51;48.22;100765.31;5073919;27;45840;-81
2022/10/14 13:21:05;;;;;;;;;0.67;0.00;;;;;24.50;48.41;100755.50;5074034;27;46228;-80
2022/10/14 13:23:39;;;;;;;;;1.00;1.00;;;;;24.48;48.11;100751.09;5072518;27;45533;-82
2022/10/14 13:26:30;;;;;;;;;1.00;1.00;;;;;24.50;48.05;100748.22;5081445;27;45553;-81
2022/10/14 13:28:59;;;;;;;;;1.00;1.00;;;;;24.51;48.33;100738.19;5081503;27;45466;-82
2022/10/14 13:31:48;;;;;;;;;0.67;0.67;;;;;24.48;48.08;100728.53;5072934;27;45568;-81
2022/10/14 13:34:25;;;;;;;;;0.00;0.00;;;;;24.50;48.23;100721.09;5078039;27;46038;-84
2022/10/14 13:37:12;;;;;;;;;0.00;0.00;;;;;24.51;48.25;100721.91;5088574;27;46085;-85
2022/10/14 13:39:37;;;;;;;;;1.00;1.00;;;;;24.51;48.32;100709.22;5105587;27;45521;-85
2022/10/14 13:42:03;;;;;;;;;0.00;0.00;;;;;24.53;48.25;100701.75;5091354;27;45394;-84
2022/10/14 13:44:28;;;;;;;;;0.00;0.00;;;;;24.57;48.13;100696.81;5093046;27;45443;-78
2022/10/14 13:46:54;;;;;;;;;1.00;0.00;;;;;24.55;47.98;100693.41;5086995;27;45544;-76
2022/10/14 13:49:26;;;;;;;;;2.33;1.33;;;;;24.55;48.39;100688.00;5087528;27;45656;-79
2022/10/14 13:52:06;;;;;;;;;1.00;1.00;;;;;24.54;48.41;100686.31;5091341;27;45401;-82
2022/10/14 13:54:32;;;;;;;;;0.00;0.00;;;;;24.51;48.55;100681.22;5095170;27;47027;-79
2022/10/14 13:57:30;;;;;;;;;0.00;0.00;;;;;24.47;48.25;100675.31;5089781;27;45512;-80
2022/10/14 13:59:55;;;;;;;;;0.67;0.00;;;;;24.47;48.35;100675.31;5033308;28;45491;-77
2022/10/14 14:02:26;;;;;;;;;3.33;3.33;;;;;24.47;48.08;100673.47;5029027;28;45739;-81
2022/10/14 14:04:57;;;;;;;;;9.33;8.00;;;;;24.46;48.47;100671.78;5026484;28;45479;-88
2022/10/14 14:07:28;;;;;;;;;5.00;5.00;;;;;24.45;48.47;100659.22;5028234;28;45347;-80
2022/10/14 14:10:00;;;;;;;;;14.00;10.00;;;;;24.42;48.70;100656.88;5029282;28;45551;-82
2022/10/14 14:12:26;;;;;;;;;10.33;10.33;;;;;24.41;48.77;100652.47;5023513;28;45671;-87
2022/10/14 14:14:52;;;;;;;;;16.67;14.33;;;;;24.38;48.78;100654.66;5027292;28;46616;-78
2022/10/14 14:17:21;;;;;;;;;18.33;17.00;;;;;24.39;49.15;100665.34;5013608;28;45940;-78
2022/10/14 14:19:47;;;;;;;;;20.67;19.33;;;;;24.36;48.88;100652.13;5027920;28;45473;-78
2022/10/14 14:22:18;;;;;;;;;23.33;21.67;;;;;24.35;49.46;100647.72;5028859;28;46405;-78
2022/10/14 14:24:46;;;;;;;;;25.00;21.67;;;;;24.37;49.28;100645.69;5030334;28;45750;-76
2022/10/14 14:27:13;;;;;;;;;23.33;18.67;;;;;24.34;49.24;100632.47;5030840;28;45537;-78
2022/10/14 14:29:42;;;;;;;;;20.67;18.33;;;;;24.36;49.08;100638.56;5026589;28;45721;-82
2022/10/14 14:32:15;;;;;;;;;22.00;18.67;;;;;24.34;49.09;100633.34;5025725;28;45438;-80
2022/10/14 14:34:43;;;;;;;;;22.33;19.00;;;;;24.36;49.05;100626.88;5035339;27;45396;-76
2022/10/14 14:37:24;;;;;;;;;23.67;23.00;;;;;24.36;49.33;100610.63;5085724;27;45617;-78
2022/10/14 14:39:59;;;;;;;;;29.33;26.33;;;;;24.36;49.68;100605.19;5089610;27;45512;-75
2022/10/14 14:42:34;;;;;;;;;27.33;24.67;;;;;24.34;49.65;100610.78;5088616;27;45392;-81
2022/10/14 14:45:11;;;;;;;;;26.00;23.67;;;;;24.34;49.47;100608.06;5095662;27;48022;-77
2022/10/14 14:47:38;;;;;;;;;31.00;28.33;;;;;24.35;49.63;100607.03;5088588;27;45401;-77
2022/10/14 14:50:05;;;;;;;;;30.75;27.00;;;;;24.32;49.30;100593.84;5082555;27;45487;-78
2022/10/14 14:52:30;;;;;;;;;33.75;26.75;;;;;24.36;49.76;100588.91;5083348;27;45448;-77
2022/10/14 14:54:56;;;;;;;;;28.50;26.50;;;;;24.34;49.48;100583.66;5075297;27;45413;-77
2022/10/14 14:57:22;;;;;;;;;32.75;28.50;;;;;24.37;49.60;100580.59;5084738;27;45513;-81
2022/10/14 15:00:17;;;;;;;;;31.00;27.25;;;;;24.37;49.70;100572.47;5084660;27;45532;-81
2022/10/14 15:02:56;;;;;;;;;31.00;27.25;;;;;24.36;49.80;100576.19;5086024;27;45447;-81
2022/10/14 15:05:21;;;;;;;;;29.00;26.67;;;;;24.35;49.63;100571.78;5087366;27;45506;-80
2022/10/14 15:07:48;;;;;;;;;30.67;28.67;;;;;24.37;49.73;100568.91;5102424;27;45833;-79
2022/10/14 15:10:25;;;;;;;;;28.00;26.00;;;;;24.37;49.59;100569.75;5100007;27;45445;-79
2022/10/14 15:12:53;;;;;;;;;34.33;30.00;;;;;24.38;49.69;100567.88;5094529;27;45488;-81
2022/10/14 15:15:31;;;;;;;;;29.67;23.67;;;;;24.36;49.85;100554.47;5093573;27;48081;-78
2022/10/14 15:18:24;;;;;;;;;24.33;21.67;;;;;24.38;49.37;100557.03;5096528;27;45470;-80
2022/10/14 15:20:50;;;;;;;;;24.33;22.67;;;;;24.36;49.47;100542.81;5094064;27;45719;-80
2022/10/14 15:23:37;;;;;;;;;31.33;24.33;;;;;24.42;49.66;100547.50;5095942;27;45386;-83
2022/10/14 15:26:03;;;;;;;;;26.33;23.33;;;;;24.39;49.39;100540.56;5089990;27;45450;-83
2022/10/14 15:28:30;;;;;;;;;23.67;21.67;;;;;24.44;49.63;100540.88;5086584;27;45673;-83
2022/10/14 15:30:56;;;;;;;;;26.67;21.67;;;;;24.46;49.55;100530.72;5095161;27;45456;-83
2022/10/14 15:33:24;;;;;;;;;20.33;19.00;;;;;24.51;49.64;100538.28;5093431;27;45530;-84
2022/10/14 15:36:01;;;;;;;;;23.00;20.33;;;;;24.53;49.36;100533.53;5087773;27;46099;-85
2022/10/14 15:38:28;;;;;;;;;23.00;20.00;;;;;24.55;49.70;100531.47;5093602;27;45508;-82
2022/10/14 15:40:54;;;;;;;;;14.33;14.00;;;;;24.59;49.22;100537.38;5092312;27;45490;-80
2022/10/14 15:43:22;;;;;;;;;10.67;10.00;;;;;24.62;47.99;100531.59;5088010;27;45842;-79
2022/10/14 15:48:36;;;;;;;;;8.00;7.67;;;;;24.77;46.85;100531.66;5089464;27;45504;-80
